Time;durP1;ratioP1;P1;durP2;ratioP2;P2;SDS_P1;SDS_P2;PMS_P1;PMS_P2;Temp;Humidity;BMP_temperature;BMP_pressure;BME280_temperature;BME280_humidity;BME280_pressure;Samples;Min_cycle;Max_cycle;Signal;HPM_P1;HPM_P2
2023/04/17 00:00:24;;;;;;;;;;;;;;;30.03;70.46;100863.75;5092844;27;66718;-44
2023/04/17 00:02:54;;;;;;;;;;;;;;;30.05;71.05;100877.91;5090718;27;69258;-43
2023/04/17 00:05:25;;;;;;;;;;;;;;;30.07;72.00;100878.53;5095212;27;66465;-44
2023/04/17 00:07:55;;;;;;;;;;;;;;;30.10;71.72;100877.28;5095286;27;70752;-42
2023/04/17 00:10:26;;;;;;;;;;;;;;;30.14;72.37;100882.00;5092209;27;67803;-44
2023/04/17 00:12:56;;;;;;;;;;;;;;;30.16;72.44;100879.94;5099827;27;69750;-43
2023/04/17 00:15:26;;;;;;;;;;;;;;;30.19;72.84;100884.09;5091467;27;66777;-44
2023/04/17 00:17:56;;;;;;;;;;;;;;;30.20;72.72;100891.16;5094496;27;69786;-43
2023/04/17 00:20:27;;;;;;;;;;;;;;;30.23;73.50;100891.59;5092767;27;66131;-43
2023/04/17 00:22:57;;;;;;;;;;;;;;;30.27;73.09;100898.22;5098337;27;69819;-43
2023/04/17 00:25:27;;;;;;;;;;;;;;;30.27;72.62;100895.50;5092583;27;66497;-44
2023/04/17 00:27:57;;;;;;;;;;;;;;;30.30;72.80;100902.38;5093110;27;70202;-44
2023/04/17 00:30:27;;;;;;;;;;;;;;;30.31;72.12;100906.72;5090483;27;66119;-43
2023/04/17 00:32:57;;;;;;;;;;;;;;;30.34;72.80;100902.75;5095304;27;71430;-44
2023/04/17 00:35:27;;;;;;;;;;;;;;;30.35;73.71;100912.56;5092283;27;65684;-43
2023/04/17 00:37:58;;;;;;;;;;;;;;;30.42;73.45;100910.63;5091774;27;69201;-44
2023/04/17 00:40:28;;;;;;;;;;;;;;;30.47;73.29;100918.94;5086063;27;66377;-44
2023/04/17 00:43:01;;;;;;;;;;;;;;;30.49;73.68;100911.44;5106358;27;70339;-42
2023/04/17 00:45:32;;;;;;;;;;;;;;;30.48;70.85;100912.50;5091307;27;66086;-41
2023/04/17 00:48:03;;;;;;;;;;;;;;;30.50;69.33;100918.50;5092274;27;70522;-44
2023/04/17 00:50:34;;;;;;;;;;;;;;;30.54;68.55;100925.16;5090766;27;65943;-43
2023/04/17 00:53:04;;;;;;;;;;;;;;;30.56;68.64;100923.03;5095103;27;69951;-44
2023/04/17 00:55:37;;;;;;;;;;;;;;;30.61;67.54;100930.53;5108493;27;66051;-43
2023/04/17 00:58:08;;;;;;;;;;;;;;;30.64;67.89;100936.31;5088987;27;69928;-43
2023/04/17 01:00:38;;;;;;;;;;;;;;;30.66;67.39;100934.22;5097296;27;66218;-42
2023/04/17 01:03:09;;;;;;;;;;;;;;;30.69;67.25;100935.69;5090696;27;71155;-43
2023/04/17 01:05:40;;;;;;;;;;;;;;;30.71;66.57;100945.25;5092368;27;66156;-42
2023/04/17 01:08:11;;;;;;;;;;;;;;;30.74;66.26;100946.69;5091597;27;69823;-44
2023/04/17 01:10:42;;;;;;;;;;;;;;;30.76;66.54;100950.03;5090035;27;66326;-44
2023/04/17 01:13:12;;;;;;;;;;;;;;;30.78;65.87;100957.91;5111809;27;69860;-43
2023/04/17 01:15:43;;;;;;;;;;;;;;;30.81;66.15;100962.91;5088546;27;67519;-43
2023/04/17 01:18:14;;;;;;;;;;;;;;;30.83;65.95;100960.84;5094421;27;69329;-43
2023/04/17 01:20:44;;;;;;;;;;;;;;;30.85;65.99;100961.44;5106436;27;67169;-43
2023/04/17 01:23:15;;;;;;;;;;;;;;;30.87;65.66;100959.34;5093186;27;72081;-42
2023/04/17 01:25:45;;;;;;;;;;;;;;;30.90;65.36;100958.94;5095978;27;65290;-43
2023/04/17 01:28:16;;;;;;;;;;;;;;;30.91;65.59;100968.69;5092553;27;70058;-43
2023/04/17 01:30:46;;;;;;;;;;;;;;;30.92;65.58;100957.66;5106117;27;65435;-44
2023/04/17 01:33:16;;;;;;;;;;;;;;;30.94;65.38;100966.38;5112319;27;70669;-44
2023/04/17 01:35:47;;;;;;;;;;;;;;;30.97;64.87;100967.00;5094743;27;66607;-43
2023/04/17 01:38:18;;;;;;;;;;;;;;;30.98;65.29;100964.09;5088528;27;69880;-43
2023/04/17 01:40:48;;;;;;;;;;;;;;;31.01;64.73;100962.78;5095556;27;66592;-43
2023/04/17 01:43:18;;;;;;;;;;;;;;;31.02;64.87;100965.28;5097551;27;69206;-44
2023/04/17 01:45:49;;;;;;;;;;;;;;;31.03;64.63;100966.94;5091996;27;66861;-42
2023/04/17 01:48:19;;;;;;;;;;;;;;;31.06;64.51;100966.50;5091596;27;70024;-43
2023/04/17 01:50:49;;;;;;;;;;;;;;;31.07;64.67;100965.47;5098880;27;66525;-43
2023/04/17 01:53:21;;;;;;;;;;;;;;;31.09;64.55;100966.09;5093627;27;70127;-43
2023/04/17 01:55:51;;;;;;;;;;;;;;;31.11;64.94;100958.53;5111589;27;67243;-43
2023/04/17 01:58:21;;;;;;;;;;;;;;;31.14;64.57;100963.50;5095709;27;69780;-42
2023/04/17 02:00:52;;;;;;;;;;;;;;;31.15;64.51;100958.94;5112376;27;66801;-43
2023/04/17 02:03:25;;;;;;;;;;;;;;;31.19;64.48;100956.63;5095480;27;70698;-43
2023/04/17 02:05:56;;;;;;;;;;;;;;;31.20;64.66;100960.97;5087494;27;66352;-43
2023/04/17 02:08:26;;;;;;;;;;;;;;;31.23;64.64;100960.53;5083323;27;70118;-43
2023/04/17 02:10:59;;;;;;;;;;;;;;;31.25;64.52;100955.72;5094759;27;66857;-43
2023/04/17 02:13:30;;;;;;;;;;;;;;;31.27;64.27;100961.78;5096475;27;69683;-43
2023/04/17 02:16:01;;;;;;;;;;;;;;;31.29;64.27;100970.53;5103905;27;65866;-43
2023/04/17 02:18:34;;;;;;;;;;;;;;;31.31;64.39;100971.09;5094520;27;69107;-43
2023/04/17 02:21:04;;;;;;;;;;;;;;;31.34;64.32;100965.25;5092107;27;66958;-43
2023/04/17 02:23:36;;;;;;;;;;;;;;;31.35;63.99;100970.44;5107507;27;69930;-43
2023/04/17 02:26:06;;;;;;;;;;;;;;;31.38;64.13;100971.91;5098981;27;66970;-43
2023/04/17 02:28:37;;;;;;;;;;;;;;;31.40;64.18;100967.13;5093262;27;70693;-43
2023/04/17 02:31:08;;;;;;;;;;;;;;;31.42;64.28;100965.00;5111568;27;65571;-43
2023/04/17 02:33:39;;;;;;;;;;;;;;;31.45;64.08;100972.69;5099894;27;70102;-42
2023/04/17 02:36:11;;;;;;;;;;;;;;;31.47;64.29;100973.28;5099960;27;65345;-44
2023/04/17 02:38:43;;;;;;;;;;;;;;;31.51;64.28;100971.81;5085595;27;70548;-43
2023/04/17 02:41:14;;;;;;;;;;;;;;;31.53;63.69;100977.81;5111928;27;66565;-43
2023/04/17 02:43:45;;;;;;;;;;;;;;;31.55;63.76;100981.16;5097708;27;69716;-43
2023/04/17 02:46:17;;;;;;;;;;;;;;;31.58;63.87;100985.31;5086813;27;66751;-43
2023/04/17 02:48:47;;;;;;;;;;;;;;;31.61;63.76;100984.84;5107324;27;70131;-43
2023/04/17 02:51:17;;;;;;;;;;;;;;;31.62;63.78;100981.06;5097086;27;66240;-43
2023/04/17 02:53:48;;;;;;;;;;;;;;;31.66;63.65;100986.91;5097325;27;69547;-42
2023/04/17 02:56:18;;;;;;;;;;;;;;;31.69;63.45;100981.03;5096336;27;67066;-43
2023/04/17 02:58:48;;;;;;;;;;;;;;;31.71;63.61;100984.34;5086803;27;70766;-44
2023/04/17 03:01:20;;;;;;;;;;;;;;;31.75;63.62;100985.56;5100525;27;66821;-43
2023/04/17 03:03:51;;;;;;;;;;;;;;;31.77;63.69;100983.44;5099348;27;70250;-42
2023/04/17 03:06:22;;;;;;;;;;;;;;;31.79;63.26;100978.66;5094877;27;65772;-43
2023/04/17 03:08:53;;;;;;;;;;;;;;;31.82;63.70;100975.47;5094616;27;71568;-42
2023/04/17 03:11:23;;;;;;;;;;;;;;;31.86;63.32;100978.56;5111350;27;67000;-42
2023/04/17 03:13:54;;;;;;;;;;;;;;;31.88;63.60;100971.88;5092085;27;69902;-42
2023/04/17 03:16:24;;;;;;;;;;;;;;;31.91;63.52;100976.00;5110274;27;67041;-43
2023/04/17 03:18:57;;;;;;;;;;;;;;;31.94;63.10;100970.16;5093862;27;70643;-42
2023/04/17 03:21:28;;;;;;;;;;;;;;;31.97;63.17;100969.72;5089701;27;66167;-43
2023/04/17 03:23:58;;;;;;;;;;;;;;;32.00;63.06;100959.22;5089458;27;70315;-43
2023/04/17 03:26:29;;;;;;;;;;;;;;;32.03;62.90;100964.19;5097163;27;66316;-43
2023/04/17 03:29:05;;;;;;;;;;;;;;;32.04;62.84;100957.72;5111149;27;69574;-43
2023/04/17 03:31:35;;;;;;;;;;;;;;;32.08;62.58;100957.28;5091783;27;66845;-43
2023/04/17 03:34:06;;;;;;;;;;;;;;;32.11;62.52;100957.66;5091014;27;70517;-43
2023/04/17 03:36:37;;;;;;;;;;;;;;;32.13;62.34;100958.25;5092696;27;66902;-43
2023/04/17 03:39:09;;;;;;;;;;;;;;;32.17;62.18;100950.47;5106758;27;70624;-44
2023/04/17 03:41:40;;;;;;;;;;;;;;;32.19;62.29;100945.66;5089426;27;66011;-42
2023/04/17 03:44:11;;;;;;;;;;;;;;;32.21;61.93;100948.97;5096447;27;70577;-43
2023/04/17 03:46:41;;;;;;;;;;;;;;;32.22;62.10;100951.44;5093488;27;66839;-43
2023/04/17 03:49:11;;;;;;;;;;;;;;;32.24;61.92;100946.63;5077546;27;70060;-42
2023/04/17 03:51:43;;;;;;;;;;;;;;;32.27;62.09;100950.78;5091165;27;66103;-43
2023/04/17 03:54:18;;;;;;;;;;;;;;;32.30;61.93;100944.88;5082479;27;70336;-44
2023/04/17 03:56:50;;;;;;;;;;;;;;;32.32;61.75;100953.63;5089084;27;67766;-43
2023/04/17 03:59:22;;;;;;;;;;;;;;;32.33;61.43;100944.44;5112672;27;70314;-43
2023/04/17 04:01:53;;;;;;;;;;;;;;;32.36;61.28;100949.41;5111193;27;66422;-42
2023/04/17 04:04:24;;;;;;;;;;;;;;;32.37;61.23;100945.63;5086421;27;69253;-43
2023/04/17 04:07:06;;;;;;;;;;;;;;;32.39;61.27;100943.50;5094385;27;66618;-43
2023/04/17 04:09:36;;;;;;;;;;;;;;;32.40;61.31;100939.75;5052378;27;69066;-42
2023/04/17 04:12:07;;;;;;;;;;;;;;;32.38;61.18;100936.44;5084065;27;66460;-44
2023/04/17 04:14:41;;;;;;;;;;;;;;;32.42;61.24;100932.19;5109774;27;70626;-43
2023/04/17 04:17:14;;;;;;;;;;;;;;;32.45;61.08;100937.16;5091817;27;66562;-42
2023/04/17 04:19:46;;;;;;;;;;;;;;;32.45;61.28;100931.72;5110845;27;69793;-43
2023/04/17 04:22:17;;;;;;;;;;;;;;;32.47;61.01;100924.22;5113895;27;66842;-43
2023/04/17 04:24:52;;;;;;;;;;;;;;;32.50;60.92;100925.63;5096123;27;69067;-43
2023/04/17 04:27:31;;;;;;;;;;;;;;;32.52;60.92;100931.69;5086701;27;66646;-43
2023/04/17 04:30:03;;;;;;;;;;;;;;;32.53;61.00;100919.75;5094807;27;70383;-44
2023/04/17 04:32:36;;;;;;;;;;;;;;;32.55;60.92;100919.53;5096514;27;66870;-43
2023/04/17 04:35:07;;;;;;;;;;;;;;;32.57;61.04;100922.81;5091734;27;70133;-44
2023/04/17 04:37:37;;;;;;;;;;;;;;;32.57;60.87;100906.53;5085601;27;66528;-42
2023/04/17 04:40:09;;;;;;;;;;;;;;;32.60;60.72;100906.09;5105632;27;70360;-43
2023/04/17 04:42:48;;;;;;;;;;;;;;;32.61;60.83;100907.75;5089390;27;66272;-44
2023/04/17 04:45:24;;;;;;;;;;;;;;;32.63;60.67;100905.63;5092686;27;70278;-43
2023/04/17 04:47:56;;;;;;;;;;;;;;;32.63;60.83;100895.59;5097957;27;66834;-44
2023/04/17 04:50:26;;;;;;;;;;;;;;;32.65;60.80;100898.06;5095114;27;69882;-43
2023/04/17 04:52:57;;;;;;;;;;;;;;;32.66;60.86;100888.88;5092991;27;65458;-43
2023/04/17 04:55:47;;;;;;;;;;;;;;;32.68;60.66;100886.72;5087047;27;70057;-43
2023/04/17 04:58:18;;;;;;;;;;;;;;;32.69;60.83;100888.41;5085900;27;66642;-43
2023/04/17 05:00:49;;;;;;;;;;;;;;;32.70;60.64;100882.72;5095773;27;70138;-44
2023/04/17 05:03:30;;;;;;;;;;;;;;;32.72;60.63;100887.94;5115728;27;66446;-43
2023/04/17 05:06:02;;;;;;;;;;;;;;;32.73;60.80;100878.72;5098591;27;69817;-44
2023/04/17 05:08:40;;;;;;;;;;;;;;;32.76;60.56;100872.81;5095319;27;65331;-44
2023/04/17 05:11:14;;;;;;;;;;;;;;;32.77;60.64;100863.63;5100093;27;70241;-43
2023/04/17 05:13:44;;;;;;;;;;;;;;;32.79;60.52;100866.94;5089448;27;66871;-43
2023/04/17 05:16:20;;;;;;;;;;;;;;;32.81;60.52;100864.78;5090985;27;70289;-42
2023/04/17 05:18:50;;;;;;;;;;;;;;;32.83;60.46;100862.66;5096800;27;66483;-43
2023/04/17 05:21:31;;;;;;;;;;;;;;;32.85;60.43;100857.84;5107171;27;70553;-43
2023/04/17 05:24:02;;;;;;;;;;;;;;;32.88;60.22;100853.81;5099390;27;66677;-43
2023/04/17 05:26:33;;;;;;;;;;;;;;;32.90;60.36;100862.53;5092452;27;70972;-43
2023/04/17 05:29:05;;;;;;;;;;;;;;;32.91;60.04;100843.31;5102541;27;65926;-43
2023/04/17 05:31:36;;;;;;;;;;;;;;;32.93;59.85;100834.91;5108340;27;70545;-43
2023/04/17 05:34:15;;;;;;;;;;;;;;;32.94;60.04;100826.53;5110348;27;66285;-43
2023/04/17 05:36:46;;;;;;;;;;;;;;;32.98;60.09;100826.06;5106699;27;69795;-44
2023/04/17 05:39:17;;;;;;;;;;;;;;;33.00;60.09;100829.41;5091969;27;66275;-43
2023/04/17 05:41:47;;;;;;;;;;;;;;;33.01;59.79;100817.47;5085918;27;69291;-43
2023/04/17 05:44:17;;;;;;;;;;;;;;;33.05;59.89;100818.66;5090444;27;65998;-43
2023/04/17 05:46:47;;;;;;;;;;;;;;;33.06;59.76;100817.59;5093270;27;70376;-43
2023/04/17 05:49:17;;;;;;;;;;;;;;;33.08;59.78;100810.84;5092495;27;66791;-43
2023/04/17 05:51:48;;;;;;;;;;;;;;;33.10;59.67;100802.47;5105539;27;69895;-43
2023/04/17 05:54:18;;;;;;;;;;;;;;;33.12;59.71;100795.72;5093390;27;66488;-44
2023/04/17 05:56:50;;;;;;;;;;;;;;;33.16;59.55;100787.94;5091671;27;69827;-43
2023/04/17 05:59:21;;;;;;;;;;;;;;;33.19;59.37;100782.00;5089771;27;66908;-44
2023/04/17 06:01:52;;;;;;;;;;;;;;;33.21;59.53;100777.16;5092474;27;69275;-43
2023/04/17 06:04:23;;;;;;;;;;;;;;;33.24;59.48;100776.69;5099342;27;66102;-44
2023/04/17 06:06:53;;;;;;;;;;;;;;;33.27;59.26;100776.22;5079747;27;70400;-44
2023/04/17 06:09:24;;;;;;;;;;;;;;;33.28;59.33;100766.16;5087942;27;66287;-43
2023/04/17 06:11:54;;;;;;;;;;;;;;;33.32;59.35;100772.75;5093671;27;70209;-43
2023/04/17 06:14:25;;;;;;;;;;;;;;;33.34;59.32;100766.00;5089067;27;66990;-44
2023/04/17 06:16:56;;;;;;;;;;;;;;;33.37;59.49;100760.09;5094055;27;70715;-44
2023/04/17 06:19:26;;;;;;;;;;;;;;;33.40;59.13;100757.97;5115641;27;67127;-44
2023/04/17 06:21:56;;;;;;;;;;;;;;;33.43;59.30;100746.59;5095653;27;69832;-43
2023/04/17 06:24:35;;;;;;;;;;;;;;;33.46;59.05;100746.13;5098242;27;66901;-43
2023/04/17 06:27:05;;;;;;;;;;;;;;;33.48;59.24;100739.38;5092303;27;69899;-43
2023/04/17 06:29:36;;;;;;;;;;;;;;;33.51;58.96;100729.91;5098421;27;66607;-43
2023/04/17 06:32:06;;;;;;;;;;;;;;;33.54;59.08;100726.72;5100084;27;69564;-43
2023/04/17 06:34:38;;;;;;;;;;;;;;;33.57;58.92;100715.38;5108099;27;66664;-44
2023/04/17 06:37:38;;;;;;;;;;;;;;;33.61;59.30;100721.16;5108021;27;70016;-44
2023/04/17 06:40:11;;;;;;;;;;;;;;;33.64;59.02;100710.63;5094516;27;66138;-44
2023/04/17 06:42:41;;;;;;;;;;;;;;;33.67;59.37;100704.69;5097397;27;70805;-44
2023/04/17 06:45:17;;;;;;;;;;;;;;;33.70;58.88;100693.31;5078330;27;66368;-44
2023/04/17 06:47:47;;;;;;;;;;;;;;;33.73;59.08;100687.38;5101249;27;70262;-44
2023/04/17 06:50:18;;;;;;;;;;;;;;;33.76;58.80;100681.44;5087006;27;66902;-44
2023/04/17 06:52:49;;;;;;;;;;;;;;;33.81;59.03;100681.53;5100338;27;70266;-44
2023/04/17 06:55:19;;;;;;;;;;;;;;;33.85;58.84;100679.19;5095102;27;66551;-44
2023/04/17 06:57:49;;;;;;;;;;;;;;;33.89;58.39;100671.34;5093740;27;70778;-44
2023/04/17 07:00:19;;;;;;;;;;;;;;;33.91;58.69;100677.38;5092349;27;66934;-44
2023/04/17 07:02:50;;;;;;;;;;;;;;;33.94;58.56;100668.72;5091457;27;70152;-43
2023/04/17 07:05:20;;;;;;;;;;;;;;;33.97;58.73;100665.50;5095415;27;66414;-43
2023/04/17 07:07:50;;;;;;;;;;;;;;;34.01;58.74;100661.19;5096011;27;70402;-43
2023/04/17 07:10:20;;;;;;;;;;;;;;;33.81;58.20;100618.16;5095113;27;65867;-43
2023/04/17 07:12:51;;;;;;;;;;;;;;;34.07;58.65;100660.25;5096092;27;70632;-43
2023/04/17 07:15:21;;;;;;;;;;;;;;;34.10;58.49;100658.91;5098012;27;66137;-44
2023/04/17 07:17:51;;;;;;;;;;;;;;;34.14;58.55;100666.34;5090506;27;69351;-44
2023/04/17 07:20:22;;;;;;;;;;;;;;;34.17;58.41;100652.25;5110030;27;66062;-43
2023/04/17 07:22:54;;;;;;;;;;;;;;;34.20;58.03;100649.03;5092445;27;70532;-43
2023/04/17 07:25:24;;;;;;;;;;;;;;;34.23;58.15;100648.50;5093472;27;66010;-43
2023/04/17 07:27:56;;;;;;;;;;;;;;;34.25;57.90;100634.66;5091224;27;70768;-43
2023/04/17 07:30:27;;;;;;;;;;;;;;;34.28;58.24;100627.91;5089382;27;64993;-43
2023/04/17 07:32:58;;;;;;;;;;;;;;;34.31;57.95;100628.22;5090718;27;70688;-43
2023/04/17 07:35:29;;;;;;;;;;;;;;;34.35;57.88;100623.94;5092657;27;66948;-43
2023/04/17 07:38:02;;;;;;;;;;;;;;;34.37;58.01;100623.69;5096683;27;70730;-43
2023/04/17 07:40:34;;;;;;;;;;;;;;;34.39;58.03;100616.91;5089448;27;66731;-43
2023/04/17 07:43:05;;;;;;;;;;;;;;;34.43;58.01;100614.50;5110054;27;70551;-43
2023/04/17 07:45:35;;;;;;;;;;;;;;;34.46;57.64;100614.00;5089080;27;66919;-42
2023/04/17 07:48:09;;;;;;;;;;;;;;;34.48;57.64;100601.78;5099338;27;70263;-43
2023/04/17 07:50:40;;;;;;;;;;;;;;;34.52;57.26;100595.81;5091593;27;66090;-42
2023/04/17 07:53:10;;;;;;;;;;;;;;;34.55;57.28;100611.66;5092349;27;70403;-43
2023/04/17 07:55:40;;;;;;;;;;;;;;;34.59;57.53;100602.78;5093647;27;66339;-44
2023/04/17 07:58:11;;;;;;;;;;;;;;;34.62;57.12;100606.88;5097470;27;69252;-43
2023/04/17 08:00:42;;;;;;;;;;;;;;;34.64;57.64;100611.00;5092877;27;66728;-43
2023/04/17 08:03:15;;;;;;;;;;;;;;;34.65;57.52;100612.66;5098697;27;70963;-43
2023/04/17 08:05:45;;;;;;;;;;;;;;;34.69;57.09;100616.53;5094177;27;66939;-43
2023/04/17 08:08:16;;;;;;;;;;;;;;;34.72;57.00;100611.66;5093646;27;70507;-43
2023/04/17 08:10:46;;;;;;;;;;;;;;;34.74;56.89;100609.47;5089568;27;66877;-43
2023/04/17 08:13:16;;;;;;;;;;;;;;;34.76;57.21;100610.06;5086919;27;70268;-44
2023/04/17 08:15:46;;;;;;;;;;;;;;;34.79;57.03;100623.19;5091697;27;64977;-44
2023/04/17 08:18:17;;;;;;;;;;;;;;;34.80;56.87;100619.38;5090054;27;70258;-43
2023/04/17 08:20:47;;;;;;;;;;;;;;;34.83;57.21;100619.69;5091726;27;66777;-43
2023/04/17 08:23:18;;;;;;;;;;;;;;;34.83;56.68;100624.34;5091409;27;70086;-43
2023/04/17 08:25:48;;;;;;;;;;;;;;;34.85;56.83;100622.16;5099326;27;66547;-43
2023/04/17 08:28:19;;;;;;;;;;;;;;;34.87;57.22;100617.28;5090842;27;69075;-43
2023/04/17 08:30:49;;;;;;;;;;;;;;;34.87;56.60;100611.84;5093837;27;67213;-43
2023/04/17 08:33:20;;;;;;;;;;;;;;;34.89;56.87;100617.88;5092792;27;70438;-43
2023/04/17 08:35:50;;;;;;;;;;;;;;;34.92;56.57;100617.34;5096113;27;66659;-43
2023/04/17 08:38:21;;;;;;;;;;;;;;;34.91;56.97;100611.09;5093515;27;70341;-43
2023/04/17 08:40:53;;;;;;;;;;;;;;;34.92;56.56;100611.91;5089106;27;67053;-43
2023/04/17 08:43:25;;;;;;;;;;;;;;;34.94;57.17;100609.75;5104261;27;69291;-43
2023/04/17 08:45:55;;;;;;;;;;;;;;;34.95;56.94;100603.22;5110056;27;65989;-43
2023/04/17 08:48:25;;;;;;;;;;;;;;;34.96;56.71;100612.22;5098263;27;69280;-43
2023/04/17 08:50:57;;;;;;;;;;;;;;;34.96;57.13;100607.56;5088532;27;65983;-45
2023/04/17 08:53:27;;;;;;;;;;;;;;;34.96;56.67;100613.03;5101503;27;70988;-44
2023/04/17 08:56:02;;;;;;;;;;;;;;;34.96;56.78;100607.56;5095662;27;66370;-44
2023/04/17 08:58:36;;;;;;;;;;;;;;;34.97;57.21;100611.97;5090497;27;69548;-43
2023/04/17 09:01:10;;;;;;;;;;;;;;;34.98;56.75;100610.88;5092728;27;65927;-44
2023/04/17 09:03:44;;;;;;;;;;;;;;;34.99;56.76;100612.50;5097705;27;70358;-44
2023/04/17 09:06:15;;;;;;;;;;;;;;;34.97;57.33;100617.41;5095632;27;65691;-44
2023/04/17 09:08:55;;;;;;;;;;;;;;;34.96;57.18;100626.66;5092349;27;70199;-43
2023/04/17 09:11:26;;;;;;;;;;;;;;;34.97;56.98;100625.59;5088288;27;66050;-43
2023/04/17 09:13:56;;;;;;;;;;;;;;;34.96;56.96;100621.19;5094723;27;71655;-44
2023/04/17 09:16:27;;;;;;;;;;;;;;;34.97;57.31;100627.50;5091652;27;67054;-44
2023/04/17 09:19:05;;;;;;;;;;;;;;;34.96;57.59;100628.56;5097712;27;69439;-44
2023/04/17 09:21:35;;;;;;;;;;;;;;;34.96;57.06;100632.09;5099707;27;65290;-44
2023/04/17 09:24:08;;;;;;;;;;;;;;;34.95;57.42;100638.66;5100001;27;68932;-43
2023/04/17 09:26:39;;;;;;;;;;;;;;;34.95;57.57;100630.47;5092408;27;66779;-44
2023/04/17 09:29:10;;;;;;;;;;;;;;;34.95;57.25;100632.38;5096725;27;70504;-44
2023/04/17 09:31:41;;;;;;;;;;;;;;;34.93;57.75;100636.16;5088122;27;66562;-43
2023/04/17 09:34:12;;;;;;;;;;;;;;;34.92;57.64;100645.41;5089809;27;70753;-44
2023/04/17 09:36:42;;;;;;;;;;;;;;;34.93;57.50;100646.25;5090247;27;65823;-44
2023/04/17 09:39:19;;;;;;;;;;;;;;;34.92;57.95;100655.50;5090689;27;70351;-44
2023/04/17 09:41:52;;;;;;;;;;;;;;;34.92;57.45;100660.97;5086332;27;65922;-44
2023/04/17 09:44:26;;;;;;;;;;;;;;;34.89;57.33;100654.09;5089071;27;72121;-43
2023/04/17 09:46:58;;;;;;;;;;;;;;;34.88;57.62;100654.34;5102090;27;66414;-43
2023/04/17 09:49:38;;;;;;;;;;;;;;;34.89;57.63;100661.47;5089625;27;70376;-43
2023/04/17 09:52:08;;;;;;;;;;;;;;;34.88;57.50;100659.78;5089416;27;67064;-43
2023/04/17 09:54:39;;;;;;;;;;;;;;;34.87;57.57;100658.16;5087970;27;70262;-43
2023/04/17 09:57:10;;;;;;;;;;;;;;;34.84;57.54;100666.84;5092827;27;66050;-43
2023/04/17 09:59:41;;;;;;;;;;;;;;;34.82;57.77;100667.09;5095226;27;70662;-43
2023/04/17 10:02:12;;;;;;;;;;;;;;;34.81;57.61;100661.91;5094973;27;66761;-44
2023/04/17 10:04:44;;;;;;;;;;;;;;;34.78;57.80;100662.41;5093790;27;70128;-44
2023/04/17 10:07:15;;;;;;;;;;;;;;;34.75;58.22;100660.19;5087109;27;66043;-44
2023/04/17 10:09:46;;;;;;;;;;;;;;;34.66;59.13;100666.06;5099726;27;69310;-44
2023/04/17 10:12:17;;;;;;;;;;;;;;;34.48;59.85;100666.31;5087588;27;65902;-44
2023/04/17 10:14:49;;;;;;;;;;;;;;;34.30;60.69;100674.75;5090575;27;70930;-45
2023/04/17 10:17:36;;;;;;;;;;;;;;;34.16;61.95;100672.38;5098319;27;66085;-45
2023/04/17 10:20:21;;;;;;;;;;;;;;;34.08;62.50;100680.97;5070458;27;69784;-43
2023/04/17 10:22:55;;;;;;;;;;;;;;;33.98;63.00;100684.28;5092530;27;66709;-43
2023/04/17 10:25:26;;;;;;;;;;;;;;;33.96;62.94;100686.44;5087618;27;70015;-43
2023/04/17 10:27:58;;;;;;;;;;;;;;;33.88;63.38;100689.56;5089252;27;65558;-42
2023/04/17 10:30:47;;;;;;;;;;;;;;;33.79;64.03;100688.31;5090474;27;70196;-44
2023/04/17 10:33:21;;;;;;;;;;;;;;;33.72;64.27;100693.09;5094150;27;66775;-43
2023/04/17 10:35:52;;;;;;;;;;;;;;;33.69;64.32;100691.69;5089825;27;70102;-44
2023/04/17 10:38:35;;;;;;;;;;;;;;;33.66;64.34;100697.59;5095335;27;66998;-43
2023/04/17 10:41:09;;;;;;;;;;;;;;;33.64;64.68;100694.31;5093403;27;69617;-42
2023/04/17 10:43:41;;;;;;;;;;;;;;;33.61;65.52;100697.50;5095216;27;66326;-41
2023/04/17 10:46:12;;;;;;;;;;;;;;;33.60;65.57;100693.16;5092663;27;69627;-42
2023/04/17 10:48:48;;;;;;;;;;;;;;;33.60;65.99;100695.88;5090952;27;67229;-43
2023/04/17 10:51:25;;;;;;;;;;;;;;;33.61;65.88;100700.22;5092216;27;70765;-43
2023/04/17 10:53:57;;;;;;;;;;;;;;;33.60;66.10;100693.16;5093115;27;66088;-44
2023/04/17 10:56:38;;;;;;;;;;;;;;;33.57;66.53;100694.47;5095958;27;70007;-44
2023/04/17 10:59:10;;;;;;;;;;;;;;;33.58;66.32;100706.16;5092547;27;66868;-43
2023/04/17 11:01:47;;;;;;;;;;;;;;;33.57;66.50;100720.81;5094398;27;70550;-43
2023/04/17 11:04:21;;;;;;;;;;;;;;;33.66;65.88;100719.38;5099307;27;67179;-43
2023/04/17 11:06:53;;;;;;;;;;;;;;;33.75;65.19;100727.97;5098573;27;70692;-42
2023/04/17 11:09:24;;;;;;;;;;;;;;;33.83;64.83;100729.47;5090078;27;66425;-42
2023/04/17 11:11:57;;;;;;;;;;;;;;;33.86;64.54;100729.81;5100050;27;70823;-44
2023/04/17 11:14:27;;;;;;;;;;;;;;;33.90;64.35;100735.56;5090905;27;66898;-42
2023/04/17 11:16:57;;;;;;;;;;;;;;;33.92;64.40;100733.44;5095691;27;70294;-42
2023/04/17 11:19:28;;;;;;;;;;;;;;;33.92;64.37;100738.88;5092348;27;66523;-42
2023/04/17 11:22:00;;;;;;;;;;;;;;;33.92;63.94;100745.13;5090221;27;69495;-42
2023/04/17 11:24:31;;;;;;;;;;;;;;;33.94;63.76;100753.91;5092909;27;66293;-43
2023/04/17 11:27:02;;;;;;;;;;;;;;;33.95;63.78;100760.16;5093703;27;69803;-43
2023/04/17 11:29:32;;;;;;;;;;;;;;;33.95;63.65;100771.88;5108634;27;67415;-42
2023/04/17 11:32:02;;;;;;;;;;;;;;;33.94;63.68;100780.28;5089548;27;69649;-41
2023/04/17 11:34:33;;;;;;;;;;;;;;;33.94;63.58;100774.84;5108263;27;66528;-42
2023/04/17 11:37:03;;;;;;;;;;;;;;;33.94;63.42;100769.41;5096958;27;70283;-42
2023/04/17 11:39:33;;;;;;;;;;;;;;;33.94;63.25;100774.84;5092370;27;66638;-44
2023/04/17 11:42:16;;;;;;;;;;;;;;;33.93;63.28;100778.63;5098640;27;70257;-44
2023/04/17 11:44:49;;;;;;;;;;;;;;;33.93;63.44;100781.34;5098931;27;66306;-39
2023/04/17 11:47:20;;;;;;;;;;;;;;;33.91;63.46;100775.34;5091446;27;69951;-43
2023/04/17 11:49:50;;;;;;;;;;;;;;;33.92;63.32;100768.81;5093228;27;66543;-42
2023/04/17 11:52:20;;;;;;;;;;;;;;;33.91;63.68;100783.50;5095421;27;69879;-43
2023/04/17 11:54:56;;;;;;;;;;;;;;;33.66;63.59;100752.00;5102051;27;66452;-42
2023/04/17 11:57:27;;;;;;;;;;;;;;;33.90;63.83;100795.44;5091685;27;69199;-42
2023/04/17 11:59:57;;;;;;;;;;;;;;;33.88;63.66;100797.56;5095643;27;66405;-41
2023/04/17 12:02:33;;;;;;;;;;;;;;;33.86;63.84;100799.72;5093663;27;70537;-41
2023/04/17 12:05:13;;;;;;;;;;;;;;;33.84;64.12;100801.84;5096641;27;66091;-42
2023/04/17 12:07:44;;;;;;;;;;;;;;;33.84;63.87;100801.84;5095505;27;69975;-43
2023/04/17 12:10:15;;;;;;;;;;;;;;;33.83;63.98;100805.66;5099540;27;66174;-43
2023/04/17 12:12:45;;;;;;;;;;;;;;;33.80;64.36;100810.50;5090606;27;70419;-43
2023/04/17 12:15:15;;;;;;;;;;;;;;;33.80;64.33;100821.38;5086931;27;65574;-43
2023/04/17 12:17:45;;;;;;;;;;;;;;;33.78;64.32;100826.22;5096099;27;69798;-44
2023/04/17 12:20:16;;;;;;;;;;;;;;;33.77;64.46;100830.03;5094962;27;65946;-43
2023/04/17 12:22:46;;;;;;;;;;;;;;;33.75;64.46;100826.72;5098275;27;69784;-41
2023/04/17 12:25:16;;;;;;;;;;;;;;;33.64;66.28;100824.84;5093667;27;66014;-43
2023/04/17 12:27:47;;;;;;;;;;;;;;;33.51;66.98;100825.09;5095550;27;70502;-42
2023/04/17 12:30:17;;;;;;;;;;;;;;;33.42;67.68;100819.19;5093590;27;66757;-44
2023/04/17 12:32:48;;;;;;;;;;;;;;;33.36;67.78;100818.25;5096523;27;70669;-43
2023/04/17 12:35:19;;;;;;;;;;;;;;;33.29;68.32;100823.03;5091587;27;65835;-44
2023/04/17 12:37:52;;;;;;;;;;;;;;;33.26;68.29;100818.03;5095888;27;69164;-44
2023/04/17 12:40:23;;;;;;;;;;;;;;;33.23;68.58;100818.50;5093380;27;66443;-44
2023/04/17 12:42:54;;;;;;;;;;;;;;;33.20;68.54;100816.28;5094250;27;69909;-43
2023/04/17 12:45:24;;;;;;;;;;;;;;;33.18;68.64;100815.66;5092095;27;66175;-43
2023/04/17 12:47:55;;;;;;;;;;;;;;;33.15;68.83;100810.72;5095823;27;69994;-43
2023/04/17 12:50:26;;;;;;;;;;;;;;;33.12;69.02;100817.44;5096545;27;66874;-43
2023/04/17 12:53:00;;;;;;;;;;;;;;;33.13;68.71;100824.56;5093834;27;71509;-45
2023/04/17 12:55:31;;;;;;;;;;;;;;;33.10;69.01;100829.66;5083433;27;65505;-43
2023/04/17 12:58:01;;;;;;;;;;;;;;;33.07;68.96;100830.09;5093396;27;69848;-43